sensor_id;sensor_type;location;lat;lon;timestamp;temperature;humidity
8563;DHT22;16392;52.508;13.468;2023-07-20T00:00:38;16.40;99.90
8563;DHT22;16392;52.508;13.468;2023-07-20T00:03:12;16.40;99.90
8563;DHT22;16392;52.508;13.468;2023-07-20T00:05:42;16.40;99.90
8563;DHT22;16392;52.508;13.468;2023-07-20T00:08:09;16.40;99.90
8563;DHT22;16392;52.508;13.468;2023-07-20T00:10:36;16.40;99.90
8563;DHT22;16392;52.508;13.468;2023-07-20T00:13:02;16.40;99.90
8563;DHT22;16392;52.508;13.468;2023-07-20T00:15:29;16.40;99.90
8563;DHT22;16392;52.508;13.468;2023-07-20T00:17:57;16.40;99.90
8563;DHT22;16392;52.508;13.468;2023-07-20T00:20:24;16.40;99.90
8563;DHT22;16392;52.508;13.468;2023-07-20T00:22:51;16.30;99.90
8563;DHT22;16392;52.508;13.468;2023-07-20T00:25:17;16.30;99.90
8563;DHT22;16392;52.508;13.468;2023-07-20T00:27:44;16.30;99.90
8563;DHT22;16392;52.508;13.468;2023-07-20T00:30:12;16.20;99.90
8563;DHT22;16392;52.508;13.468;2023-07-20T00:32:38;16.20;99.90
8563;DHT22;16392;52.508;13.468;2023-07-20T00:35:07;16.20;99.90
8563;DHT22;16392;52.508;13.468;2023-07-20T00:37:34;16.20;99.90
8563;DHT22;16392;52.508;13.468;2023-07-20T00:40:01;16.20;99.90
8563;DHT22;16392;52.508;13.468;2023-07-20T00:42:29;16.20;99.90
8563;DHT22;16392;52.508;13.468;2023-07-20T00:44:56;16.10;99.90
8563;DHT22;16392;52.508;13.468;2023-07-20T00:47:23;16.10;99.90
8563;DHT22;16392;52.508;13.468;2023-07-20T00:49:50;16.10;99.90
8563;DHT22;16392;52.508;13.468;2023-07-20T00:52:28;16.10;99.90
8563;DHT22;16392;52.508;13.468;2023-07-20T00:54:55;16.10;99.90
8563;DHT22;16392;52.508;13.468;2023-07-20T00:57:24;16.00;99.90
8563;DHT22;16392;52.508;13.468;2023-07-20T00:59:51;16.00;99.90
8563;DHT22;16392;52.508;13.468;2023-07-20T01:02:17;16.00;99.90
8563;DHT22;16392;52.508;13.468;2023-07-20T01:04:44;16.00;99.90
8563;DHT22;16392;52.508;13.468;2023-07-20T01:07:14;16.00;99.90
8563;DHT22;16392;52.508;13.468;2023-07-20T01:09:50;16.00;99.90
8563;DHT22;16392;52.508;13.468;2023-07-20T01:12:33;16.00;99.90
8563;DHT22;16392;52.508;13.468;2023-07-20T01:15:02;16.10;99.90
8563;DHT22;16392;52.508;13.468;2023-07-20T01:17:29;16.20;99.90
8563;DHT22;16392;52.508;13.468;2023-07-20T01:19:55;16.20;99.90
8563;DHT22;16392;52.508;13.468;2023-07-20T01:22:43;16.20;99.90
8563;DHT22;16392;52.508;13.468;2023-07-20T01:25:25;16.20;99.90
8563;DHT22;16392;52.508;13.468;2023-07-20T01:28:25;16.30;99.90
8563;DHT22;16392;52.508;13.468;2023-07-20T01:33:32;16.20;99.90
8563;DHT22;16392;52.508;13.468;2023-07-20T01:36:00;16.30;99.90
8563;DHT22;16392;52.508;13.468;2023-07-20T01:38:28;16.30;99.90
8563;DHT22;16392;52.508;13.468;2023-07-20T01:40:56;16.30;99.90
8563;DHT22;16392;52.508;13.468;2023-07-20T01:43:23;16.30;99.90
8563;DHT22;16392;52.508;13.468;2023-07-20T01:45:50;16.30;99.90
8563;DHT22;16392;52.508;13.468;2023-07-20T01:48:16;16.30;99.90
8563;DHT22;16392;52.508;13.468;2023-07-20T01:50:44;16.20;99.90
8563;DHT22;16392;52.508;13.468;2023-07-20T01:53:11;16.20;99.90
8563;DHT22;16392;52.508;13.468;2023-07-20T01:55:38;16.10;99.90
8563;DHT22;16392;52.508;13.468;2023-07-20T01:58:04;16.10;99.90
8563;DHT22;16392;52.508;13.468;2023-07-20T02:00:32;16.00;99.90
8563;DHT22;16392;52.508;13.468;2023-07-20T02:02:58;16.10;99.90
8563;DHT22;16392;52.508;13.468;2023-07-20T02:05:25;16.10;99.90
8563;DHT22;16392;52.508;13.468;2023-07-20T02:07:53;16.00;99.90
8563;DHT22;16392;52.508;13.468;2023-07-20T02:10:19;16.00;99.90
8563;DHT22;16392;52.508;13.468;2023-07-20T02:12:46;16.00;99.90
8563;DHT22;16392;52.508;13.468;2023-07-20T02:15:13;16.10;99.90
8563;DHT22;16392;52.508;13.468;2023-07-20T02:17:42;16.10;99.90
8563;DHT22;16392;52.508;13.468;2023-07-20T02:20:09;16.10;99.90
8563;DHT22;16392;52.508;13.468;2023-07-20T02:22:36;16.10;99.90
8563;DHT22;16392;52.508;13.468;2023-07-20T02:25:05;16.00;99.90
8563;DHT22;16392;52.508;13.468;2023-07-20T02:27:32;16.00;99.90
8563;DHT22;16392;52.508;13.468;2023-07-20T02:29:59;16.00;99.90
8563;DHT22;16392;52.508;13.468;2023-07-20T02:32:25;15.90;99.90
8563;DHT22;16392;52.508;13.468;2023-07-20T02:34:52;16.00;99.90
8563;DHT22;16392;52.508;13.468;2023-07-20T02:37:19;16.00;99.90
8563;DHT22;16392;52.508;13.468;2023-07-20T02:39:45;16.00;99.90
8563;DHT22;16392;52.508;13.468;2023-07-20T02:42:13;15.90;99.90
8563;DHT22;16392;52.508;13.468;2023-07-20T02:44:40;15.90;99.90
8563;DHT22;16392;52.508;13.468;2023-07-20T02:47:07;15.80;99.90
8563;DHT22;16392;52.508;13.468;2023-07-20T02:49:34;15.80;99.90
8563;DHT22;16392;52.508;13.468;2023-07-20T02:52:01;15.80;99.90
8563;DHT22;16392;52.508;13.468;2023-07-20T02:54:28;15.70;99.90
8563;DHT22;16392;52.508;13.468;2023-07-20T02:56:56;15.70;99.90
8563;DHT22;16392;52.508;13.468;2023-07-20T02:59:24;15.70;99.90
8563;DHT22;16392;52.508;13.468;2023-07-20T03:01:50;15.70;99.90
8563;DHT22;16392;52.508;13.468;2023-07-20T03:04:17;15.70;99.90
8563;DHT22;16392;52.508;13.468;2023-07-20T03:06:43;15.70;99.90
8563;DHT22;16392;52.508;13.468;2023-07-20T03:09:10;15.70;99.90
8563;DHT22;16392;52.508;13.468;2023-07-20T03:11:37;15.70;99.90
8563;DHT22;16392;52.508;13.468;2023-07-20T03:14:03;15.70;99.90
8563;DHT22;16392;52.508;13.468;2023-07-20T03:16:31;15.70;99.90
8563;DHT22;16392;52.508;13.468;2023-07-20T03:18:58;15.70;99.90
8563;DHT22;16392;52.508;13.468;2023-07-20T03:21:25;15.70;99.90
8563;DHT22;16392;52.508;13.468;2023-07-20T03:23:52;15.70;99.90
8563;DHT22;16392;52.508;13.468;2023-07-20T03:26:19;15.60;99.90
8563;DHT22;16392;52.508;13.468;2023-07-20T03:28:46;15.70;99.90
8563;DHT22;16392;52.508;13.468;2023-07-20T03:31:12;15.80;99.90
8563;DHT22;16392;52.508;13.468;2023-07-20T03:33:42;15.80;99.90
8563;DHT22;16392;52.508;13.468;2023-07-20T03:36:08;15.80;99.90
8563;DHT22;16392;52.508;13.468;2023-07-20T03:38:35;15.80;99.90
8563;DHT22;16392;52.508;13.468;2023-07-20T03:41:02;15.80;99.90
8563;DHT22;16392;52.508;13.468;2023-07-20T03:43:29;15.80;99.90
8563;DHT22;16392;52.508;13.468;2023-07-20T03:45:55;15.90;99.90
8563;DHT22;16392;52.508;13.468;2023-07-20T03:48:24;15.90;99.90
8563;DHT22;16392;52.508;13.468;2023-07-20T03:50:54;15.80;99.90
8563;DHT22;16392;52.508;13.468;2023-07-20T03:53:21;15.80;99.90
8563;DHT22;16392;52.508;13.468;2023-07-20T03:55:49;15.80;99.90
8563;DHT22;16392;52.508;13.468;2023-07-20T03:58:17;15.70;99.90
8563;DHT22;16392;52.508;13.468;2023-07-20T04:00:44;15.70;99.90
8563;DHT22;16392;52.508;13.468;2023-07-20T04:03:11;15.70;99.90
8563;DHT22;16392;52.508;13.468;2023-07-20T04:05:38;15.80;99.90
8563;DHT22;16392;52.508;13.468;2023-07-20T04:08:06;15.80;99.90
8563;DHT22;16392;52.508;13.468;2023-07-20T04:10:32;15.80;99.90
8563;DHT22;16392;52.508;13.468;2023-07-20T04:13:00;15.80;99.90
8563;DHT22;16392;52.508;13.468;2023-07-20T04:15:26;15.80;99.90
8563;DHT22;16392;52.508;13.468;2023-07-20T04:17:53;15.80;99.90
8563;DHT22;16392;52.508;13.468;2023-07-20T04:20:21;15.80;99.90
8563;DHT22;16392;52.508;13.468;2023-07-20T04:22:48;15.90;99.90
8563;DHT22;16392;52.508;13.468;2023-07-20T04:25:16;15.90;99.90
8563;DHT22;16392;52.508;13.468;2023-07-20T04:27:43;16.00;99.90
8563;DHT22;16392;52.508;13.468;2023-07-20T04:30:10;16.10;99.90
8563;DHT22;16392;52.508;13.468;2023-07-20T04:32:37;16.20;99.90
8563;DHT22;16392;52.508;13.468;2023-07-20T04:35:06;16.20;99.90
8563;DHT22;16392;52.508;13.468;2023-07-20T04:37:33;16.10;99.90
8563;DHT22;16392;52.508;13.468;2023-07-20T04:39:59;16.10;99.90
8563;DHT22;16392;52.508;13.468;2023-07-20T04:42:27;15.90;99.90
8563;DHT22;16392;52.508;13.468;2023-07-20T04:44:54;16.00;99.90
8563;DHT22;16392;52.508;13.468;2023-07-20T04:47:20;16.00;99.90
8563;DHT22;16392;52.508;13.468;2023-07-20T04:49:47;16.20;99.90
8563;DHT22;16392;52.508;13.468;2023-07-20T04:52:14;16.20;99.90
8563;DHT22;16392;52.508;13.468;2023-07-20T04:54:40;16.20;99.90
8563;DHT22;16392;52.508;13.468;2023-07-20T04:57:12;16.20;99.90
8563;DHT22;16392;52.508;13.468;2023-07-20T04:59:40;16.30;99.90
8563;DHT22;16392;52.508;13.468;2023-07-20T05:02:06;16.40;99.90
8563;DHT22;16392;52.508;13.468;2023-07-20T05:04:33;16.50;99.90
8563;DHT22;16392;52.508;13.468;2023-07-20T05:07:00;16.60;99.90
8563;DHT22;16392;52.508;13.468;2023-07-20T05:09:26;16.70;99.90
8563;DHT22;16392;52.508;13.468;2023-07-20T05:11:53;16.70;99.90
8563;DHT22;16392;52.508;13.468;2023-07-20T05:14:19;16.80;99.90
8563;DHT22;16392;52.508;13.468;2023-07-20T05:16:47;16.90;99.90
8563;DHT22;16392;52.508;13.468;2023-07-20T05:19:14;16.90;99.90
8563;DHT22;16392;52.508;13.468;2023-07-20T05:21:40;16.90;99.90
8563;DHT22;16392;52.508;13.468;2023-07-20T05:24:07;16.90;99.90
8563;DHT22;16392;52.508;13.468;2023-07-20T05:26:34;17.00;99.90
8563;DHT22;16392;52.508;13.468;2023-07-20T05:29:00;16.90;99.90
8563;DHT22;16392;52.508;13.468;2023-07-20T05:31:27;17.10;99.90
8563;DHT22;16392;52.508;13.468;2023-07-20T05:33:57;17.50;99.90
8563;DHT22;16392;52.508;13.468;2023-07-20T05:36:24;18.20;99.90
8563;DHT22;16392;52.508;13.468;2023-07-20T05:38:51;18.20;99.90
8563;DHT22;16392;52.508;13.468;2023-07-20T05:41:17;19.20;99.90
8563;DHT22;16392;52.508;13.468;2023-07-20T05:43:44;19.90;99.90
8563;DHT22;16392;52.508;13.468;2023-07-20T05:46:10;20.20;99.90
8563;DHT22;16392;52.508;13.468;2023-07-20T05:48:37;19.80;99.90
8563;DHT22;16392;52.508;13.468;2023-07-20T05:51:05;19.30;99.90
8563;DHT22;16392;52.508;13.468;2023-07-20T05:53:32;19.10;99.90
8563;DHT22;16392;52.508;13.468;2023-07-20T05:55:59;19.20;99.90
8563;DHT22;16392;52.508;13.468;2023-07-20T05:58:25;19.50;99.90
8563;DHT22;16392;52.508;13.468;2023-07-20T06:00:53;19.70;99.90
8563;DHT22;16392;52.508;13.468;2023-07-20T06:03:20;19.70;99.90
8563;DHT22;16392;52.508;13.468;2023-07-20T06:05:47;20.00;99.90
8563;DHT22;16392;52.508;13.468;2023-07-20T06:08:15;20.00;99.90
8563;DHT22;16392;52.508;13.468;2023-07-20T06:10:42;19.40;99.90
8563;DHT22;16392;52.508;13.468;2023-07-20T06:13:09;19.20;99.90
8563;DHT22;16392;52.508;13.468;2023-07-20T06:15:36;19.00;99.90
8563;DHT22;16392;52.508;13.468;2023-07-20T06:18:04;18.80;99.90
8563;DHT22;16392;52.508;13.468;2023-07-20T06:20:31;18.70;99.90
8563;DHT22;16392;52.508;13.468;2023-07-20T06:22:57;18.70;99.90
8563;DHT22;16392;52.508;13.468;2023-07-20T06:25:25;18.70;99.90
8563;DHT22;16392;52.508;13.468;2023-07-20T06:27:52;18.30;99.90
8563;DHT22;16392;52.508;13.468;2023-07-20T06:30:19;18.20;99.90
8563;DHT22;16392;52.508;13.468;2023-07-20T06:32:46;18.10;99.90
8563;DHT22;16392;52.508;13.468;2023-07-20T06:35:13;18.00;99.90
8563;DHT22;16392;52.508;13.468;2023-07-20T06:37:40;18.20;99.90
8563;DHT22;16392;52.508;13.468;2023-07-20T06:40:08;18.30;99.90
8563;DHT22;16392;52.508;13.468;2023-07-20T06:42:36;18.60;99.90
8563;DHT22;16392;52.508;13.468;2023-07-20T06:45:04;18.90;99.90
8563;DHT22;16392;52.508;13.468;2023-07-20T06:47:30;19.40;99.90
8563;DHT22;16392;52.508;13.468;2023-07-20T06:49:57;19.90;99.90
8563;DHT22;16392;52.508;13.468;2023-07-20T06:52:23;20.10;99.90
8563;DHT22;16392;52.508;13.468;2023-07-20T06:54:50;20.10;99.90
8563;DHT22;16392;52.508;13.468;2023-07-20T06:57:17;20.60;99.90
8563;DHT22;16392;52.508;13.468;2023-07-20T06:59:45;20.60;93.90
8563;DHT22;16392;52.508;13.468;2023-07-20T07:02:11;19.90;92.70
8563;DHT22;16392;52.508;13.468;2023-07-20T07:04:38;19.40;99.90
8563;DHT22;16392;52.508;13.468;2023-07-20T07:07:04;19.30;99.90
8563;DHT22;16392;52.508;13.468;2023-07-20T07:09:31;19.50;99.90
8563;DHT22;16392;52.508;13.468;2023-07-20T07:11:58;20.00;3.80
8563;DHT22;16392;52.508;13.468;2023-07-20T07:14:24;20.60;1.00
8563;DHT22;16392;52.508;13.468;2023-07-20T07:16:52;21.90;1.00
8563;DHT22;16392;52.508;13.468;2023-07-20T07:19:19;23.00;1.00
8563;DHT22;16392;52.508;13.468;2023-07-20T07:21:45;24.10;99.90
8563;DHT22;16392;52.508;13.468;2023-07-20T07:24:12;24.90;1.00
8563;DHT22;16392;52.508;13.468;2023-07-20T07:26:39;26.10;1.00
8563;DHT22;16392;52.508;13.468;2023-07-20T07:29:05;25.80;99.90
8563;DHT22;16392;52.508;13.468;2023-07-20T07:31:34;24.90;1.00
8563;DHT22;16392;52.508;13.468;2023-07-20T07:34:03;23.40;99.90
8563;DHT22;16392;52.508;13.468;2023-07-20T07:36:30;22.40;1.00
8563;DHT22;16392;52.508;13.468;2023-07-20T07:38:56;21.60;98.70
8563;DHT22;16392;52.508;13.468;2023-07-20T07:41:23;21.60;99.90
8563;DHT22;16392;52.508;13.468;2023-07-20T07:43:50;22.40;99.90
8563;DHT22;16392;52.508;13.468;2023-07-20T07:46:16;22.30;99.90
8563;DHT22;16392;52.508;13.468;2023-07-20T07:48:43;22.90;99.90
8563;DHT22;16392;52.508;13.468;2023-07-20T07:51:11;22.80;1.00
8563;DHT22;16392;52.508;13.468;2023-07-20T07:53:38;23.20;1.00
8563;DHT22;16392;52.508;13.468;2023-07-20T07:56:07;23.30;1.00
8563;DHT22;16392;52.508;13.468;2023-07-20T07:58:33;24.50;1.00
8563;DHT22;16392;52.508;13.468;2023-07-20T08:01:01;25.10;16.00
8563;DHT22;16392;52.508;13.468;2023-07-20T08:03:27;25.10;99.90
8563;DHT22;16392;52.508;13.468;2023-07-20T08:05:54;24.50;99.90
8563;DHT22;16392;52.508;13.468;2023-07-20T08:08:23;23.10;1.00
8563;DHT22;16392;52.508;13.468;2023-07-20T08:10:52;22.90;95.50
8563;DHT22;16392;52.508;13.468;2023-07-20T08:13:19;22.80;99.90
8563;DHT22;16392;52.508;13.468;2023-07-20T08:15:49;23.30;99.90
8563;DHT22;16392;52.508;13.468;2023-07-20T08:18:16;23.90;1.00
8563;DHT22;16392;52.508;13.468;2023-07-20T08:20:43;24.40;1.00
8563;DHT22;16392;52.508;13.468;2023-07-20T08:23:10;24.20;99.90
8563;DHT22;16392;52.508;13.468;2023-07-20T08:25:38;23.60;1.00
8563;DHT22;16392;52.508;13.468;2023-07-20T08:28:09;23.10;1.00
8563;DHT22;16392;52.508;13.468;2023-07-20T08:30:40;22.40;1.00
8563;DHT22;16392;52.508;13.468;2023-07-20T08:33:07;21.80;1.00
8563;DHT22;16392;52.508;13.468;2023-07-20T08:35:34;21.80;99.90
8563;DHT22;16392;52.508;13.468;2023-07-20T08:38:01;23.00;99.90
8563;DHT22;16392;52.508;13.468;2023-07-20T08:40:30;23.30;1.00
8563;DHT22;16392;52.508;13.468;2023-07-20T08:42:58;23.10;1.00
8563;DHT22;16392;52.508;13.468;2023-07-20T08:45:26;23.70;99.90
8563;DHT22;16392;52.508;13.468;2023-07-20T08:47:54;24.20;53.10
8563;DHT22;16392;52.508;13.468;2023-07-20T08:50:22;23.80;99.90
8563;DHT22;16392;52.508;13.468;2023-07-20T08:52:51;23.40;1.00
8563;DHT22;16392;52.508;13.468;2023-07-20T08:55:19;23.20;1.00
8563;DHT22;16392;52.508;13.468;2023-07-20T08:57:47;23.10;99.90
8563;DHT22;16392;52.508;13.468;2023-07-20T09:00:17;22.50;99.90
8563;DHT22;16392;52.508;13.468;2023-07-20T09:02:48;22.70;1.00
8563;DHT22;16392;52.508;13.468;2023-07-20T09:05:15;23.50;99.90
8563;DHT22;16392;52.508;13.468;2023-07-20T09:07:42;24.90;1.00
8563;DHT22;16392;52.508;13.468;2023-07-20T09:10:09;25.40;1.00
8563;DHT22;16392;52.508;13.468;2023-07-20T09:12:38;26.60;1.00
8563;DHT22;16392;52.508;13.468;2023-07-20T09:15:05;27.80;99.90
8563;DHT22;16392;52.508;13.468;2023-07-20T09:17:34;26.90;99.90
8563;DHT22;16392;52.508;13.468;2023-07-20T09:20:02;26.80;99.90
8563;DHT22;16392;52.508;13.468;2023-07-20T09:22:30;27.10;99.90
8563;DHT22;16392;52.508;13.468;2023-07-20T09:24:58;26.30;99.90
8563;DHT22;16392;52.508;13.468;2023-07-20T09:27:34;26.60;99.90
8563;DHT22;16392;52.508;13.468;2023-07-20T09:30:02;27.10;99.90
8563;DHT22;16392;52.508;13.468;2023-07-20T09:32:29;25.90;99.90
8563;DHT22;16392;52.508;13.468;2023-07-20T09:34:57;25.70;99.90
8563;DHT22;16392;52.508;13.468;2023-07-20T09:37:24;26.30;99.90
8563;DHT22;16392;52.508;13.468;2023-07-20T09:39:52;26.70;99.90
8563;DHT22;16392;52.508;13.468;2023-07-20T09:42:20;26.10;99.90
8563;DHT22;16392;52.508;13.468;2023-07-20T09:44:48;25.40;99.90
8563;DHT22;16392;52.508;13.468;2023-07-20T09:47:21;24.90;99.90
8563;DHT22;16392;52.508;13.468;2023-07-20T09:49:48;24.50;1.00
8563;DHT22;16392;52.508;13.468;2023-07-20T09:52:16;23.80;1.00
8563;DHT22;16392;52.508;13.468;2023-07-20T09:54:45;23.30;1.00
8563;DHT22;16392;52.508;13.468;2023-07-20T09:57:12;22.70;99.90
8563;DHT22;16392;52.508;13.468;2023-07-20T09:59:41;22.50;99.90
8563;DHT22;16392;52.508;13.468;2023-07-20T10:02:13;21.80;1.00
8563;DHT22;16392;52.508;13.468;2023-07-20T10:04:43;21.30;99.90
8563;DHT22;16392;52.508;13.468;2023-07-20T10:07:11;21.30;1.00
8563;DHT22;16392;52.508;13.468;2023-07-20T10:09:40;20.70;1.00
8563;DHT22;16392;52.508;13.468;2023-07-20T10:12:09;20.10;1.00
8563;DHT22;16392;52.508;13.468;2023-07-20T10:14:41;19.40;1.60
8563;DHT22;16392;52.508;13.468;2023-07-20T10:17:07;19.00;99.90
8563;DHT22;16392;52.508;13.468;2023-07-20T10:19:42;18.80;99.90
8563;DHT22;16392;52.508;13.468;2023-07-20T10:22:14;19.00;99.90
8563;DHT22;16392;52.508;13.468;2023-07-20T10:24:46;19.40;99.90
8563;DHT22;16392;52.508;13.468;2023-07-20T10:27:13;19.80;99.90
8563;DHT22;16392;52.508;13.468;2023-07-20T10:29:40;20.20;12.00
8563;DHT22;16392;52.508;13.468;2023-07-20T10:32:08;20.40;1.00
8563;DHT22;16392;52.508;13.468;2023-07-20T10:34:35;20.60;1.00
8563;DHT22;16392;52.508;13.468;2023-07-20T10:37:02;20.90;1.00
8563;DHT22;16392;52.508;13.468;2023-07-20T10:39:31;21.10;1.00
8563;DHT22;16392;52.508;13.468;2023-07-20T10:42:05;21.20;1.00
8563;DHT22;16392;52.508;13.468;2023-07-20T10:44:33;21.00;1.00
8563;DHT22;16392;52.508;13.468;2023-07-20T10:47:00;21.10;1.00
8563;DHT22;16392;52.508;13.468;2023-07-20T10:49:28;21.40;99.90
8563;DHT22;16392;52.508;13.468;2023-07-20T10:51:58;21.50;1.00
8563;DHT22;16392;52.508;13.468;2023-07-20T10:54:34;21.40;99.90
8563;DHT22;16392;52.508;13.468;2023-07-20T10:57:23;21.40;99.90
8563;DHT22;16392;52.508;13.468;2023-07-20T10:59:51;21.70;72.00
8563;DHT22;16392;52.508;13.468;2023-07-20T11:02:18;21.50;99.90
8563;DHT22;16392;52.508;13.468;2023-07-20T11:04:46;21.50;1.00
8563;DHT22;16392;52.508;13.468;2023-07-20T11:07:15;21.60;99.90
8563;DHT22;16392;52.508;13.468;2023-07-20T11:09:42;21.60;11.00
8563;DHT22;16392;52.508;13.468;2023-07-20T11:12:09;21.60;1.00
8563;DHT22;16392;52.508;13.468;2023-07-20T11:14:41;21.60;99.90
8563;DHT22;16392;52.508;13.468;2023-07-20T11:17:13;21.70;99.90
8563;DHT22;16392;52.508;13.468;2023-07-20T11:19:41;21.90;1.00
8563;DHT22;16392;52.508;13.468;2023-07-20T11:22:08;22.30;99.90
8563;DHT22;16392;52.508;13.468;2023-07-20T11:24:38;22.60;99.90
8563;DHT22;16392;52.508;13.468;2023-07-20T11:27:05;22.50;99.90
8563;DHT22;16392;52.508;13.468;2023-07-20T11:29:32;22.50;1.00
8563;DHT22;16392;52.508;13.468;2023-07-20T11:32:00;22.60;1.00
8563;DHT22;16392;52.508;13.468;2023-07-20T11:34:29;22.50;99.90
8563;DHT22;16392;52.508;13.468;2023-07-20T11:36:56;22.30;99.90
8563;DHT22;16392;52.508;13.468;2023-07-20T11:39:23;22.40;1.00
8563;DHT22;16392;52.508;13.468;2023-07-20T11:41:51;22.60;99.90
8563;DHT22;16392;52.508;13.468;2023-07-20T11:44:18;23.00;35.00
8563;DHT22;16392;52.508;13.468;2023-07-20T11:46:46;22.70;1.00
8563;DHT22;16392;52.508;13.468;2023-07-20T11:49:14;22.70;99.90
8563;DHT22;16392;52.508;13.468;2023-07-20T11:51:41;23.80;99.90
8563;DHT22;16392;52.508;13.468;2023-07-20T11:54:08;24.90;1.00
8563;DHT22;16392;52.508;13.468;2023-07-20T11:56:35;25.00;99.90
8563;DHT22;16392;52.508;13.468;2023-07-20T11:59:02;24.60;99.90
8563;DHT22;16392;52.508;13.468;2023-07-20T12:01:30;24.70;33.00
8563;DHT22;16392;52.508;13.468;2023-07-20T12:03:59;25.10;2.80
8563;DHT22;16392;52.508;13.468;2023-07-20T12:06:29;25.40;1.00
8563;DHT22;16392;52.508;13.468;2023-07-20T12:08:57;24.60;1.00
8563;DHT22;16392;52.508;13.468;2023-07-20T12:11:31;24.30;69.40
8563;DHT22;16392;52.508;13.468;2023-07-20T12:13:59;23.80;99.90
8563;DHT22;16392;52.508;13.468;2023-07-20T12:16:27;23.20;1.00
8563;DHT22;16392;52.508;13.468;2023-07-20T12:18:59;22.80;1.00
8563;DHT22;16392;52.508;13.468;2023-07-20T12:21:28;22.50;99.90
8563;DHT22;16392;52.508;13.468;2023-07-20T12:23:56;22.20;1.00
8563;DHT22;16392;52.508;13.468;2023-07-20T12:26:24;21.70;1.00
8563;DHT22;16392;52.508;13.468;2023-07-20T12:28:51;21.20;1.00
8563;DHT22;16392;52.508;13.468;2023-07-20T12:31:18;21.10;11.00
8563;DHT22;16392;52.508;13.468;2023-07-20T12:33:45;21.40;1.00
8563;DHT22;16392;52.508;13.468;2023-07-20T12:36:11;21.90;1.00
8563;DHT22;16392;52.508;13.468;2023-07-20T12:38:39;21.90;96.30
8563;DHT22;16392;52.508;13.468;2023-07-20T12:41:07;22.00;1.00
8563;DHT22;16392;52.508;13.468;2023-07-20T12:43:34;22.10;1.00
8563;DHT22;16392;52.508;13.468;2023-07-20T12:46:00;21.90;1.00
8563;DHT22;16392;52.508;13.468;2023-07-20T12:48:27;22.10;1.00
8563;DHT22;16392;52.508;13.468;2023-07-20T12:50:54;22.60;99.90
8563;DHT22;16392;52.508;13.468;2023-07-20T12:53:20;23.10;15.40
8563;DHT22;16392;52.508;13.468;2023-07-20T12:55:48;23.50;1.00
8563;DHT22;16392;52.508;13.468;2023-07-20T12:58:15;24.20;1.00
8563;DHT22;16392;52.508;13.468;2023-07-20T13:00:42;24.40;99.90
8563;DHT22;16392;52.508;13.468;2023-07-20T13:03:10;24.30;1.00
8563;DHT22;16392;52.508;13.468;2023-07-20T13:05:36;24.70;1.00
8563;DHT22;16392;52.508;13.468;2023-07-20T13:08:03;24.20;99.90
8563;DHT22;16392;52.508;13.468;2023-07-20T13:10:31;23.80;99.90
8563;DHT22;16392;52.508;13.468;2023-07-20T13:12:59;24.10;99.90
8563;DHT22;16392;52.508;13.468;2023-07-20T13:15:30;24.50;99.90
8563;DHT22;16392;52.508;13.468;2023-07-20T13:17:57;24.70;99.90
8563;DHT22;16392;52.508;13.468;2023-07-20T13:20:25;24.60;99.90
8563;DHT22;16392;52.508;13.468;2023-07-20T13:22:52;25.10;99.90
8563;DHT22;16392;52.508;13.468;2023-07-20T13:25:19;25.10;99.90
8563;DHT22;16392;52.508;13.468;2023-07-20T13:27:46;24.90;99.90
8563;DHT22;16392;52.508;13.468;2023-07-20T13:30:14;24.80;99.90
8563;DHT22;16392;52.508;13.468;2023-07-20T13:32:42;24.90;99.90
8563;DHT22;16392;52.508;13.468;2023-07-20T13:35:10;25.20;99.90
8563;DHT22;16392;52.508;13.468;2023-07-20T13:37:37;24.90;99.90
8563;DHT22;16392;52.508;13.468;2023-07-20T13:40:04;25.00;99.90
8563;DHT22;16392;52.508;13.468;2023-07-20T13:42:31;25.60;99.90
8563;DHT22;16392;52.508;13.468;2023-07-20T13:44:58;25.30;99.90
8563;DHT22;16392;52.508;13.468;2023-07-20T13:47:26;25.90;99.90
8563;DHT22;16392;52.508;13.468;2023-07-20T13:49:53;25.90;95.90
8563;DHT22;16392;52.508;13.468;2023-07-20T13:52:19;26.10;97.00
8563;DHT22;16392;52.508;13.468;2023-07-20T13:54:46;25.60;83.30
8563;DHT22;16392;52.508;13.468;2023-07-20T13:57:12;25.30;85.50
8563;DHT22;16392;52.508;13.468;2023-07-20T13:59:40;25.80;81.90
8563;DHT22;16392;52.508;13.468;2023-07-20T14:02:07;26.20;81.60
8563;DHT22;16392;52.508;13.468;2023-07-20T14:04:35;25.60;89.30
8563;DHT22;16392;52.508;13.468;2023-07-20T14:07:01;25.20;93.30
8563;DHT22;16392;52.508;13.468;2023-07-20T14:09:28;25.10;92.40
8563;DHT22;16392;52.508;13.468;2023-07-20T14:11:55;24.90;91.70
8563;DHT22;16392;52.508;13.468;2023-07-20T14:14:21;24.90;89.90
8563;DHT22;16392;52.508;13.468;2023-07-20T14:16:48;25.10;94.70
8563;DHT22;16392;52.508;13.468;2023-07-20T14:19:14;25.60;93.00
8563;DHT22;16392;52.508;13.468;2023-07-20T14:21:42;26.00;82.40
8563;DHT22;16392;52.508;13.468;2023-07-20T14:24:10;26.40;80.80
8563;DHT22;16392;52.508;13.468;2023-07-20T14:26:37;26.10;70.60
8563;DHT22;16392;52.508;13.468;2023-07-20T14:29:03;25.30;92.90
8563;DHT22;16392;52.508;13.468;2023-07-20T14:31:30;25.80;90.20
8563;DHT22;16392;52.508;13.468;2023-07-20T14:33:56;25.80;91.30
8563;DHT22;16392;52.508;13.468;2023-07-20T14:36:23;26.10;75.10
8563;DHT22;16392;52.508;13.468;2023-07-20T14:38:51;26.20;58.70
8563;DHT22;16392;52.508;13.468;2023-07-20T14:41:17;26.20;55.60
8563;DHT22;16392;52.508;13.468;2023-07-20T14:43:44;25.30;55.30
8563;DHT22;16392;52.508;13.468;2023-07-20T14:46:11;25.30;64.00
8563;DHT22;16392;52.508;13.468;2023-07-20T14:48:37;25.60;68.80
8563;DHT22;16392;52.508;13.468;2023-07-20T14:51:04;25.80;61.30
8563;DHT22;16392;52.508;13.468;2023-07-20T14:53:30;25.90;61.30
8563;DHT22;16392;52.508;13.468;2023-07-20T14:56:01;25.60;69.20
8563;DHT22;16392;52.508;13.468;2023-07-20T14:58:29;25.20;59.90
8563;DHT22;16392;52.508;13.468;2023-07-20T15:01:00;24.50;73.20
8563;DHT22;16392;52.508;13.468;2023-07-20T15:03:27;23.90;93.40
8563;DHT22;16392;52.508;13.468;2023-07-20T15:05:56;23.80;95.70
8563;DHT22;16392;52.508;13.468;2023-07-20T15:08:23;23.80;96.40
8563;DHT22;16392;52.508;13.468;2023-07-20T15:10:49;23.90;93.50
8563;DHT22;16392;52.508;13.468;2023-07-20T15:13:17;23.80;97.20
8563;DHT22;16392;52.508;13.468;2023-07-20T15:15:44;23.40;99.90
8563;DHT22;16392;52.508;13.468;2023-07-20T15:18:10;23.30;99.90
8563;DHT22;16392;52.508;13.468;2023-07-20T15:20:37;23.30;99.90
8563;DHT22;16392;52.508;13.468;2023-07-20T15:23:04;23.30;99.90
8563;DHT22;16392;52.508;13.468;2023-07-20T15:25:31;23.20;99.90
8563;DHT22;16392;52.508;13.468;2023-07-20T15:27:57;23.20;99.90
8563;DHT22;16392;52.508;13.468;2023-07-20T15:30:27;23.00;99.90
8563;DHT22;16392;52.508;13.468;2023-07-20T15:32:54;23.10;99.90
8563;DHT22;16392;52.508;13.468;2023-07-20T15:35:22;23.20;99.90
8563;DHT22;16392;52.508;13.468;2023-07-20T15:37:48;23.20;99.90